メインページ
METAR-TAF:

METAR-TAF

空港 :

ワガドゥグー, ブルキナファソ

ワガドゥグー空港

緯度: 12-21N, 経度: 001-31W, 海抜: 316m

現時点の気象観測

当レポートは32分前の23:00(UTC)に作成
南/南西の風 1kt
気温 25°C
湿度 89%
気圧 1017 hPa
視程10km以上
1,500メートル以下は雲なし、積乱雲なし

METAR: DFFD 232300Z 20001KT CAVOK 25/23 Q1017 NOSIG

時間: 23:32 (23:32 UTC)

予報

当レポートは6時間32分前の17:00(UTC)に作成
予報は23日の 18時(UTC)から 24日の 24時(UTC)まで有効
西/南西の風 8kt
視程10km以上
高度2000ftの雲は散在している
23日の 18時(UTC)から 24日の 02時(UTC)まで一時的に
高度2000ftの雲はほとんどない
高度3600ftの雲はほとんどない, 積乱雲.
激しい雷雨
確率 30% :
24日の 14時(UTC)から 24日の 24時(UTC)まで一時的に
視程: 4000m
高度2000ftの雲は散在している
高度3600ftの雲はほとんどない, 積乱雲.
激しい雷雨, 雨

TAF: DFFD 231700Z 2318/2424 24008KT 9999 SCT020 TEMPO 2318/2402 TS FEW020 FEW036CB PROB30 TEMPO 2414/2424 4000 TSRA SCT020 FEW036CB

4,000以上の空港の気象観測と天気予報(METAR報とTAF報)

利用可能な観測所は地図上に黄色い丸と赤い丸で示す。

丸の上にカーソルを重ねると観測所名を参照できる。

次にクリックすると気象観測と天気予報を参照できる。

マップの切り替え:黒色「×」印の緑ボタンをクリックして拡大、「-」印の緑ボタンをクリックして縮小、緑色の三角印をクリックして隣りの地図に切り替え


METAR-TAF: